UPS842 TFFR-SKRG
Flight info
| Callsign | UPS842 |
|---|---|
| Flight time | N/A |
| Altitude | 34000 |
| Route | TULEX2F TULEX DCT ITEGO UP533 PBL UW40 BRM UW8 LFA UW34 CUC UW26 DIPRA DIPRA3B |
| Aircraft | MD11/H-SDE1E2E3FGHIJ2J3J4J5M1RWXY/LB1D1 |
Departure
| Time | 2026-05-06 04:43 |
|---|---|
| Airport | Maryse Condé International Airport (TFFR) |
Arrival
| Time | N/A |
|---|---|
| Airport | Jose Maria Córdova International Airport (SKRG) |
| Time | Latitude | Longitude | Altitude | Speed | Heading |
|---|---|---|---|---|---|
| 2026-05-06 04:17 | 16.26803 | -61.52151 | 42 ft | 0 kts | 11° |
| 2026-05-06 04:30 | 16.26802 | -61.52151 | 42 ft | 1 kts | 11° |
| 2026-05-06 04:30 | 16.26789 | -61.52156 | 42 ft | 2 kts | 25° |
| 2026-05-06 04:30 | 16.26775 | -61.52163 | 42 ft | 2 kts | 22° |
| 2026-05-06 04:30 | 16.26761 | -61.52168 | 42 ft | 2 kts | 21° |
| 2026-05-06 04:31 | 16.26747 | -61.52174 | 42 ft | 2 kts | 21° |
| 2026-05-06 04:31 | 16.26733 | -61.52179 | 41 ft | 2 kts | 21° |
| 2026-05-06 04:31 | 16.26719 | -61.52185 | 41 ft | 2 kts | 21° |
| 2026-05-06 04:31 | 16.26709 | -61.52189 | 41 ft | 0 kts | 21° |
| 2026-05-06 04:32 | 16.26710 | -61.52189 | 41 ft | 1 kts | 9° |
| 2026-05-06 04:32 | 16.26721 | -61.52198 | 41 ft | 2 kts | 292° |
| 2026-05-06 04:32 | 16.26725 | -61.52231 | 41 ft | 5 kts | 282° |
| 2026-05-06 04:32 | 16.26730 | -61.52254 | 40 ft | 0 kts | 281° |
| 2026-05-06 04:33 | 16.26730 | -61.52255 | 40 ft | 0 kts | 281° |
| 2026-05-06 04:35 | 16.26731 | -61.52260 | 40 ft | 3 kts | 281° |
| 2026-05-06 04:35 | 16.26742 | -61.52319 | 39 ft | 12 kts | 281° |
| 2026-05-06 04:35 | 16.26764 | -61.52440 | 38 ft | 20 kts | 280° |
| 2026-05-06 04:36 | 16.26793 | -61.52597 | 36 ft | 23 kts | 281° |
| 2026-05-06 04:36 | 16.26823 | -61.52751 | 35 ft | 17 kts | 281° |
| 2026-05-06 04:36 | 16.26841 | -61.52851 | 35 ft | 10 kts | 281° |
| 2026-05-06 04:36 | 16.26830 | -61.52911 | 35 ft | 7 kts | 222° |
| 2026-05-06 04:37 | 16.26766 | -61.52939 | 35 ft | 13 kts | 192° |
| 2026-05-06 04:37 | 16.26668 | -61.52958 | 35 ft | 16 kts | 190° |
| 2026-05-06 04:37 | 16.26551 | -61.52980 | 35 ft | 13 kts | 191° |
| 2026-05-06 04:37 | 16.26501 | -61.53027 | 35 ft | 11 kts | 268° |
| 2026-05-06 04:38 | 16.26521 | -61.53137 | 35 ft | 19 kts | 281° |
| 2026-05-06 04:38 | 16.26553 | -61.53303 | 36 ft | 27 kts | 281° |
| 2026-05-06 04:38 | 16.26588 | -61.53499 | 37 ft | 27 kts | 281° |
| 2026-05-06 04:38 | 16.26625 | -61.53696 | 37 ft | 27 kts | 281° |
| 2026-05-06 04:39 | 16.26661 | -61.53890 | 38 ft | 27 kts | 281° |
| 2026-05-06 04:39 | 16.26696 | -61.54079 | 37 ft | 26 kts | 281° |
| 2026-05-06 04:39 | 16.26728 | -61.54254 | 36 ft | 19 kts | 281° |
| 2026-05-06 04:39 | 16.26755 | -61.54400 | 35 ft | 20 kts | 281° |
| 2026-05-06 04:40 | 16.26783 | -61.54551 | 35 ft | 21 kts | 281° |
| 2026-05-06 04:40 | 16.26820 | -61.54674 | 34 ft | 12 kts | 309° |
| 2026-05-06 04:40 | 16.26868 | -61.54731 | 34 ft | 7 kts | 278° |
| 2026-05-06 04:40 | 16.26843 | -61.54750 | 34 ft | 3 kts | 159° |
| 2026-05-06 04:41 | 16.26823 | -61.54728 | 34 ft | 6 kts | 120° |
| 2026-05-06 04:41 | 16.26806 | -61.54672 | 34 ft | 6 kts | 100° |
| 2026-05-06 04:41 | 16.26806 | -61.54670 | 34 ft | 0 kts | 100° |
| 2026-05-06 04:42 | 16.26803 | -61.54657 | 34 ft | 8 kts | 100° |
| 2026-05-06 04:42 | 16.26753 | -61.54386 | 36 ft | 78 kts | 101° |
| 2026-05-06 04:42 | 16.26599 | -61.53550 | 37 ft | 154 kts | 101° |
| 2026-05-06 04:42 | 16.26362 | -61.52263 | 155 ft | 196 kts | 101° |
| 2026-05-06 04:43 | 16.26114 | -61.50920 | 1026 ft | 188 kts | 100° |
| 2026-05-06 04:43 | 16.25861 | -61.49575 | 1696 ft | 200 kts | 99° |
| 2026-05-06 04:43 | 16.25589 | -61.48100 | 2174 ft | 218 kts | 100° |
| 2026-05-06 04:43 | 16.25303 | -61.46557 | 3029 ft | 223 kts | 100° |
| 2026-05-06 04:44 | 16.25006 | -61.44955 | 3754 ft | 236 kts | 100° |
| 2026-05-06 04:44 | 16.24679 | -61.43209 | 4380 ft | 251 kts | 102° |
| 2026-05-06 04:44 | 16.23985 | -61.41552 | 5073 ft | 263 kts | 127° |
| 2026-05-06 04:44 | 16.22552 | -61.40344 | 5889 ft | 273 kts | 153° |
| 2026-05-06 04:45 | 16.20704 | -61.39796 | 6748 ft | 280 kts | 168° |
| 2026-05-06 04:45 | 16.18741 | -61.39691 | 7569 ft | 289 kts | 182° |
| 2026-05-06 04:45 | 16.16734 | -61.39844 | 8366 ft | 293 kts | 175° |
| 2026-05-06 04:45 | 16.14688 | -61.39842 | 9203 ft | 297 kts | 180° |
| 2026-05-06 04:46 | 16.12604 | -61.39998 | 10040 ft | 302 kts | 183° |
| 2026-05-06 04:46 | 16.10464 | -61.40198 | 10433 ft | 325 kts | 184° |
| 2026-05-06 04:46 | 16.08070 | -61.40432 | 10548 ft | 357 kts | 184° |
| 2026-05-06 04:46 | 16.05483 | -61.40683 | 10688 ft | 385 kts | 184° |
| 2026-05-06 04:47 | 16.02817 | -61.41125 | 11202 ft | 400 kts | 193° |
| 2026-05-06 04:47 | 16.00194 | -61.42190 | 11926 ft | 409 kts | 208° |
| 2026-05-06 04:47 | 15.97839 | -61.43908 | 12733 ft | 415 kts | 222° |
| 2026-05-06 04:47 | 15.95925 | -61.46155 | 13513 ft | 419 kts | 235° |
| 2026-05-06 04:48 | 15.94366 | -61.48724 | 14335 ft | 423 kts | 239° |
| 2026-05-06 04:48 | 15.92842 | -61.51326 | 15125 ft | 427 kts | 239° |
| 2026-05-06 04:48 | 15.91249 | -61.53958 | 15886 ft | 432 kts | 239° |
| 2026-05-06 04:48 | 15.89621 | -61.56588 | 16625 ft | 437 kts | 239° |
| 2026-05-06 04:49 | 15.87976 | -61.59220 | 17326 ft | 442 kts | 239° |
| 2026-05-06 04:49 | 15.86285 | -61.61915 | 18019 ft | 446 kts | 239° |
| 2026-05-06 04:49 | 15.84586 | -61.64626 | 18719 ft | 449 kts | 238° |
| 2026-05-06 04:49 | 15.82883 | -61.67336 | 19379 ft | 452 kts | 238° |
| 2026-05-06 04:50 | 15.81167 | -61.70063 | 20015 ft | 456 kts | 238° |
| 2026-05-06 04:50 | 15.79436 | -61.72814 | 20621 ft | 459 kts | 238° |
| 2026-05-06 04:50 | 15.77668 | -61.75624 | 21248 ft | 462 kts | 237° |
| 2026-05-06 04:50 | 15.75914 | -61.78412 | 21852 ft | 465 kts | 237° |
| 2026-05-06 04:51 | 15.74141 | -61.81226 | 22446 ft | 468 kts | 237° |
| 2026-05-06 04:51 | 15.72378 | -61.84029 | 23032 ft | 470 kts | 237° |
| 2026-05-06 04:51 | 15.70586 | -61.86879 | 23592 ft | 473 kts | 237° |
| 2026-05-06 04:51 | 15.68785 | -61.89743 | 24131 ft | 477 kts | 237° |
| 2026-05-06 04:52 | 15.66970 | -61.92630 | 24667 ft | 480 kts | 237° |
| 2026-05-06 04:52 | 15.65142 | -61.95538 | 25187 ft | 482 kts | 237° |
| 2026-05-06 04:52 | 15.63302 | -61.98466 | 25690 ft | 485 kts | 237° |
| 2026-05-06 04:52 | 15.61458 | -62.01402 | 26178 ft | 488 kts | 237° |
| 2026-05-06 04:53 | 15.59600 | -62.04359 | 26735 ft | 489 kts | 237° |
| 2026-05-06 04:53 | 15.57735 | -62.07330 | 27207 ft | 492 kts | 237° |
| 2026-05-06 04:53 | 15.55889 | -62.10270 | 27671 ft | 495 kts | 237° |
| 2026-05-06 04:53 | 15.54005 | -62.13273 | 28091 ft | 498 kts | 237° |
| 2026-05-06 04:54 | 15.52118 | -62.16279 | 28498 ft | 501 kts | 237° |
| 2026-05-06 04:54 | 15.50218 | -62.19309 | 29247 ft | 497 kts | 237° |
| 2026-05-06 04:54 | 15.48338 | -62.22288 | 29866 ft | 496 kts | 237° |
| 2026-05-06 04:54 | 15.46454 | -62.25259 | 30508 ft | 494 kts | 237° |
| 2026-05-06 04:55 | 15.44574 | -62.28226 | 31103 ft | 492 kts | 237° |
| 2026-05-06 04:55 | 15.42707 | -62.31174 | 31690 ft | 490 kts | 237° |
| 2026-05-06 04:55 | 15.40826 | -62.34144 | 32179 ft | 489 kts | 237° |
| 2026-05-06 04:55 | 15.38974 | -62.37072 | 32671 ft | 488 kts | 237° |
| 2026-05-06 04:56 | 15.37114 | -62.40011 | 33205 ft | 486 kts | 237° |
| 2026-05-06 04:56 | 15.35246 | -62.42934 | 33712 ft | 484 kts | 236° |
| 2026-05-06 04:56 | 15.33276 | -62.45745 | 34193 ft | 482 kts | 232° |
| 2026-05-06 04:56 | 15.31111 | -62.48475 | 34614 ft | 480 kts | 229° |
| 2026-05-06 04:57 | 15.28753 | -62.51006 | 35016 ft | 478 kts | 225° |
| 2026-05-06 04:57 | 15.26257 | -62.53482 | 35402 ft | 477 kts | 224° |
| 2026-05-06 04:57 | 15.23865 | -62.55828 | 35783 ft | 475 kts | 224° |
| 2026-05-06 04:57 | 15.21443 | -62.58200 | 36051 ft | 475 kts | 224° |
| 2026-05-06 04:58 | 15.19040 | -62.60555 | 36033 ft | 477 kts | 224° |
| 2026-05-06 04:58 | 15.14216 | -62.65282 | 36044 ft | 475 kts | 224° |
| 2026-05-06 04:59 | 15.09406 | -62.69994 | 36049 ft | 474 kts | 224° |
| 2026-05-06 04:59 | 15.04613 | -62.74692 | 36049 ft | 475 kts | 224° |
| 2026-05-06 05:00 | 14.99811 | -62.79399 | 36049 ft | 476 kts | 224° |
| 2026-05-06 05:00 | 14.95007 | -62.84110 | 36043 ft | 475 kts | 224° |
| 2026-05-06 05:01 | 14.90225 | -62.88798 | 36040 ft | 476 kts | 224° |
| 2026-05-06 05:01 | 14.85414 | -62.93518 | 36041 ft | 476 kts | 224° |
| 2026-05-06 05:02 | 14.80615 | -62.98227 | 36047 ft | 476 kts | 224° |
| 2026-05-06 05:02 | 14.75789 | -63.02961 | 36042 ft | 476 kts | 224° |
| 2026-05-06 05:03 | 14.70993 | -63.07668 | 36036 ft | 475 kts | 224° |
| 2026-05-06 05:03 | 14.66212 | -63.12359 | 36027 ft | 475 kts | 224° |
| 2026-05-06 05:04 | 14.61383 | -63.17050 | 36027 ft | 475 kts | 224° |
| 2026-05-06 05:04 | 14.56583 | -63.21711 | 36020 ft | 476 kts | 224° |
| 2026-05-06 05:05 | 14.51761 | -63.26396 | 36026 ft | 475 kts | 224° |
| 2026-05-06 05:05 | 14.46957 | -63.31065 | 36031 ft | 475 kts | 224° |
| 2026-05-06 05:06 | 14.42119 | -63.35770 | 36026 ft | 475 kts | 224° |
| 2026-05-06 05:06 | 14.37299 | -63.40458 | 36020 ft | 475 kts | 224° |
| 2026-05-06 05:07 | 14.32489 | -63.45136 | 36026 ft | 475 kts | 224° |
| 2026-05-06 05:07 | 14.27656 | -63.49839 | 36031 ft | 476 kts | 224° |
| 2026-05-06 05:08 | 14.22844 | -63.54521 | 36031 ft | 476 kts | 224° |
| 2026-05-06 05:08 | 14.18047 | -63.59190 | 36028 ft | 476 kts | 224° |
| 2026-05-06 05:09 | 14.13233 | -63.63877 | 36026 ft | 476 kts | 224° |
| 2026-05-06 05:09 | 14.08426 | -63.68556 | 36022 ft | 476 kts | 224° |
| 2026-05-06 05:10 | 14.03590 | -63.73250 | 36022 ft | 476 kts | 224° |
| 2026-05-06 05:10 | 13.98764 | -63.77906 | 36026 ft | 476 kts | 224° |
| 2026-05-06 05:11 | 13.93939 | -63.82567 | 36023 ft | 476 kts | 224° |
| 2026-05-06 05:11 | 13.89096 | -63.87246 | 36031 ft | 476 kts | 224° |
| 2026-05-06 05:12 | 13.84269 | -63.91911 | 36034 ft | 476 kts | 224° |
| 2026-05-06 05:12 | 13.79459 | -63.96562 | 36029 ft | 477 kts | 224° |
| 2026-05-06 05:13 | 13.74636 | -64.01226 | 36021 ft | 476 kts | 224° |
| 2026-05-06 05:13 | 13.69779 | -64.05923 | 36021 ft | 476 kts | 224° |
| 2026-05-06 05:14 | 13.65022 | -64.10599 | 36024 ft | 476 kts | 226° |
| 2026-05-06 05:14 | 13.60542 | -64.15623 | 36027 ft | 477 kts | 231° |
| 2026-05-06 05:15 | 13.56370 | -64.20970 | 36025 ft | 477 kts | 232° |
| 2026-05-06 05:15 | 13.52274 | -64.26281 | 36024 ft | 476 kts | 232° |
| 2026-05-06 05:16 | 13.48140 | -64.31636 | 36016 ft | 476 kts | 232° |
| 2026-05-06 05:16 | 13.44033 | -64.36954 | 36012 ft | 476 kts | 232° |
| 2026-05-06 05:17 | 13.39917 | -64.42278 | 36015 ft | 476 kts | 232° |
| 2026-05-06 05:17 | 13.35813 | -64.47568 | 36007 ft | 476 kts | 232° |
| 2026-05-06 05:18 | 13.31674 | -64.52909 | 36005 ft | 476 kts | 232° |
| 2026-05-06 05:18 | 13.27551 | -64.58231 | 36010 ft | 476 kts | 232° |
| 2026-05-06 05:19 | 13.23438 | -64.63541 | 36012 ft | 476 kts | 232° |
| 2026-05-06 05:19 | 13.19313 | -64.68869 | 36007 ft | 476 kts | 232° |
| 2026-05-06 05:20 | 13.15165 | -64.74176 | 36007 ft | 477 kts | 232° |
| 2026-05-06 05:20 | 13.11034 | -64.79465 | 36012 ft | 476 kts | 232° |
| 2026-05-06 05:21 | 13.06894 | -64.84769 | 36008 ft | 476 kts | 232° |
| 2026-05-06 05:21 | 13.02775 | -64.90051 | 36003 ft | 477 kts | 232° |
| 2026-05-06 05:22 | 12.98610 | -64.95393 | 36003 ft | 477 kts | 232° |
| 2026-05-06 05:22 | 12.94490 | -65.00680 | 36001 ft | 477 kts | 232° |
| 2026-05-06 05:23 | 12.90341 | -65.06005 | 36010 ft | 477 kts | 232° |
| 2026-05-06 05:23 | 12.84135 | -65.13971 | 35999 ft | 476 kts | 232° |
| 2026-05-06 05:24 | 12.80008 | -65.19271 | 36005 ft | 476 kts | 232° |
| 2026-05-06 05:24 | 12.75866 | -65.24591 | 36000 ft | 476 kts | 232° |
| 2026-05-06 05:25 | 12.71731 | -65.29903 | 36000 ft | 477 kts | 232° |
| 2026-05-06 05:25 | 12.67617 | -65.35189 | 35994 ft | 477 kts | 232° |
| 2026-05-06 05:26 | 12.63448 | -65.40500 | 35997 ft | 476 kts | 232° |
| 2026-05-06 05:26 | 12.59295 | -65.45781 | 35991 ft | 477 kts | 232° |
| 2026-05-06 05:27 | 12.55150 | -65.51054 | 35984 ft | 477 kts | 232° |
| 2026-05-06 05:27 | 12.51006 | -65.56328 | 35980 ft | 476 kts | 232° |
| 2026-05-06 05:28 | 12.46834 | -65.61639 | 35986 ft | 477 kts | 232° |
| 2026-05-06 05:28 | 12.42690 | -65.66919 | 35987 ft | 477 kts | 232° |
| 2026-05-06 05:29 | 12.38547 | -65.72197 | 35984 ft | 477 kts | 232° |
| 2026-05-06 05:29 | 12.34396 | -65.77486 | 35979 ft | 477 kts | 232° |
| 2026-05-06 05:30 | 12.30255 | -65.82764 | 35973 ft | 477 kts | 232° |
| 2026-05-06 05:30 | 12.26098 | -65.88065 | 35980 ft | 477 kts | 232° |
| 2026-05-06 05:31 | 12.21959 | -65.93343 | 35992 ft | 477 kts | 232° |
| 2026-05-06 05:31 | 12.17804 | -65.98643 | 35989 ft | 477 kts | 232° |
| 2026-05-06 05:32 | 12.13642 | -66.03941 | 35986 ft | 476 kts | 232° |
| 2026-05-06 05:32 | 12.09474 | -66.09202 | 35984 ft | 477 kts | 232° |
| 2026-05-06 05:33 | 12.05313 | -66.14460 | 35984 ft | 477 kts | 232° |
| 2026-05-06 05:33 | 12.01140 | -66.19737 | 35984 ft | 478 kts | 232° |
| 2026-05-06 05:34 | 11.96971 | -66.25011 | 35984 ft | 477 kts | 232° |
| 2026-05-06 05:34 | 11.92799 | -66.30292 | 35979 ft | 477 kts | 232° |
| 2026-05-06 05:35 | 11.88620 | -66.35581 | 35982 ft | 477 kts | 232° |
| 2026-05-06 05:35 | 11.84469 | -66.40836 | 35982 ft | 478 kts | 232° |
| 2026-05-06 05:36 | 11.80269 | -66.46153 | 35984 ft | 479 kts | 232° |
| 2026-05-06 05:36 | 11.76093 | -66.51444 | 35976 ft | 479 kts | 232° |
| 2026-05-06 05:37 | 11.71926 | -66.56722 | 35968 ft | 479 kts | 232° |
| 2026-05-06 05:37 | 11.67742 | -66.62022 | 35966 ft | 479 kts | 232° |
| 2026-05-06 05:38 | 11.63555 | -66.67305 | 35964 ft | 480 kts | 232° |
| 2026-05-06 05:38 | 11.59359 | -66.72598 | 35969 ft | 480 kts | 232° |
| 2026-05-06 05:39 | 11.55152 | -66.77904 | 35967 ft | 480 kts | 232° |
| 2026-05-06 05:39 | 11.50969 | -66.83164 | 35964 ft | 481 kts | 232° |
| 2026-05-06 05:40 | 11.46752 | -66.88468 | 35964 ft | 481 kts | 232° |
| 2026-05-06 05:40 | 11.42531 | -66.93781 | 35965 ft | 482 kts | 232° |
| 2026-05-06 05:41 | 11.38296 | -66.99101 | 35967 ft | 482 kts | 232° |
| 2026-05-06 05:41 | 11.34076 | -67.04402 | 35967 ft | 481 kts | 232° |
| 2026-05-06 05:42 | 11.29867 | -67.09693 | 35963 ft | 481 kts | 232° |
| 2026-05-06 05:42 | 11.25668 | -67.14973 | 35966 ft | 481 kts | 232° |
| 2026-05-06 05:43 | 11.21427 | -67.20306 | 35967 ft | 482 kts | 232° |
| 2026-05-06 05:43 | 11.17209 | -67.25585 | 35964 ft | 482 kts | 232° |
| 2026-05-06 05:44 | 11.12970 | -67.30889 | 35966 ft | 482 kts | 232° |
| 2026-05-06 05:44 | 11.08726 | -67.36198 | 35961 ft | 482 kts | 232° |
| 2026-05-06 05:45 | 11.04516 | -67.41469 | 35957 ft | 483 kts | 232° |
| 2026-05-06 05:45 | 11.00255 | -67.46802 | 35955 ft | 483 kts | 232° |
| 2026-05-06 05:46 | 10.95956 | -67.52061 | 35959 ft | 483 kts | 230° |
| 2026-05-06 05:46 | 10.91566 | -67.57231 | 35963 ft | 483 kts | 230° |
| 2026-05-06 05:47 | 10.87193 | -67.62418 | 35964 ft | 483 kts | 231° |
| 2026-05-06 05:47 | 10.82821 | -67.67611 | 35964 ft | 483 kts | 230° |
| 2026-05-06 05:48 | 10.78442 | -67.72807 | 35964 ft | 484 kts | 230° |
| 2026-05-06 05:48 | 10.74062 | -67.78001 | 35966 ft | 485 kts | 230° |
| 2026-05-06 05:49 | 10.69676 | -67.83205 | 35970 ft | 485 kts | 230° |
| 2026-05-06 05:49 | 10.65270 | -67.88438 | 35977 ft | 485 kts | 230° |
| 2026-05-06 05:50 | 10.60803 | -67.93578 | 35977 ft | 485 kts | 229° |
| 2026-05-06 05:50 | 10.56319 | -67.98697 | 35975 ft | 485 kts | 229° |
| 2026-05-06 05:51 | 10.51861 | -68.03837 | 35967 ft | 484 kts | 232° |
| 2026-05-06 05:51 | 10.48115 | -68.09484 | 35971 ft | 484 kts | 243° |
| 2026-05-06 05:52 | 10.45570 | -68.15804 | 35983 ft | 484 kts | 252° |
| 2026-05-06 05:52 | 10.43380 | -68.22257 | 35995 ft | 483 kts | 252° |
| 2026-05-06 05:53 | 10.41167 | -68.28685 | 36013 ft | 482 kts | 252° |
| 2026-05-06 05:53 | 10.38951 | -68.35091 | 36021 ft | 481 kts | 252° |
| 2026-05-06 05:54 | 10.36745 | -68.41457 | 36026 ft | 481 kts | 252° |
| 2026-05-06 05:54 | 10.34525 | -68.47863 | 36031 ft | 481 kts | 252° |
| 2026-05-06 05:55 | 10.32316 | -68.54243 | 36035 ft | 481 kts | 252° |
| 2026-05-06 05:55 | 10.30103 | -68.60635 | 36029 ft | 482 kts | 252° |
| 2026-05-06 05:56 | 10.27886 | -68.67045 | 36018 ft | 482 kts | 251° |
| 2026-05-06 05:56 | 10.25663 | -68.73476 | 35998 ft | 481 kts | 252° |
| 2026-05-06 05:57 | 10.23463 | -68.79844 | 36004 ft | 480 kts | 252° |
| 2026-05-06 05:57 | 10.21250 | -68.86255 | 36046 ft | 480 kts | 252° |
| 2026-05-06 05:58 | 10.19046 | -68.92639 | 36090 ft | 480 kts | 252° |
| 2026-05-06 05:58 | 10.16828 | -68.99027 | 36119 ft | 481 kts | 251° |
| 2026-05-06 05:59 | 10.14594 | -69.05425 | 36112 ft | 481 kts | 251° |
| 2026-05-06 05:59 | 10.12363 | -69.11824 | 36080 ft | 481 kts | 252° |
| 2026-05-06 06:00 | 10.10132 | -69.18225 | 36054 ft | 481 kts | 252° |
| 2026-05-06 06:00 | 10.07917 | -69.24597 | 36035 ft | 480 kts | 251° |
| 2026-05-06 06:01 | 10.05678 | -69.30978 | 36034 ft | 480 kts | 250° |
| 2026-05-06 06:01 | 10.03129 | -69.37228 | 36042 ft | 481 kts | 246° |
| 2026-05-06 06:02 | 10.00101 | -69.43309 | 36051 ft | 481 kts | 244° |
| 2026-05-06 06:02 | 9.97034 | -69.49294 | 36080 ft | 480 kts | 244° |
| 2026-05-06 06:03 | 9.93949 | -69.55317 | 36104 ft | 479 kts | 244° |
| 2026-05-06 06:03 | 9.90891 | -69.61287 | 36108 ft | 479 kts | 244° |
| 2026-05-06 06:04 | 9.87812 | -69.67303 | 36102 ft | 479 kts | 243° |
| 2026-05-06 06:04 | 9.84745 | -69.73292 | 36095 ft | 479 kts | 244° |
| 2026-05-06 06:05 | 9.81692 | -69.79260 | 36110 ft | 479 kts | 243° |
| 2026-05-06 06:05 | 9.78625 | -69.85255 | 36147 ft | 479 kts | 244° |
| 2026-05-06 06:06 | 9.75560 | -69.91250 | 36205 ft | 479 kts | 244° |
| 2026-05-06 06:06 | 9.72495 | -69.97246 | 36249 ft | 480 kts | 244° |
| 2026-05-06 06:07 | 9.69421 | -70.03260 | 36267 ft | 481 kts | 244° |
| 2026-05-06 06:07 | 9.66358 | -70.09257 | 36229 ft | 482 kts | 244° |